sensor_id;sensor_type;location;lat;lon;timestamp;P1;durP1;ratioP1;P2;durP2;ratioP2
10565;SDS011;5331;48.148;16.326;2023-08-21T00:00:10;11.57;;;10.57;;
10565;SDS011;5331;48.148;16.326;2023-08-21T00:02:38;11.23;;;10.32;;
10565;SDS011;5331;48.148;16.326;2023-08-21T00:05:05;12.02;;;10.98;;
10565;SDS011;5331;48.148;16.326;2023-08-21T00:07:32;11.00;;;10.07;;
10565;SDS011;5331;48.148;16.326;2023-08-21T00:09:59;12.27;;;11.20;;
10565;SDS011;5331;48.148;16.326;2023-08-21T00:12:26;11.73;;;10.63;;
10565;SDS011;5331;48.148;16.326;2023-08-21T00:14:53;12.20;;;11.10;;
10565;SDS011;5331;48.148;16.326;2023-08-21T00:17:21;11.77;;;10.77;;
10565;SDS011;5331;48.148;16.326;2023-08-21T00:19:48;11.80;;;10.80;;
10565;SDS011;5331;48.148;16.326;2023-08-21T00:22:15;11.68;;;10.57;;
10565;SDS011;5331;48.148;16.326;2023-08-21T00:24:42;12.15;;;11.05;;
10565;SDS011;5331;48.148;16.326;2023-08-21T00:27:09;11.18;;;10.25;;
10565;SDS011;5331;48.148;16.326;2023-08-21T00:29:36;11.88;;;10.88;;
10565;SDS011;5331;48.148;16.326;2023-08-21T00:32:03;11.10;;;10.10;;
10565;SDS011;5331;48.148;16.326;2023-08-21T00:34:32;11.02;;;10.10;;
10565;SDS011;5331;48.148;16.326;2023-08-21T00:36:59;11.60;;;10.60;;
10565;SDS011;5331;48.148;16.326;2023-08-21T00:39:26;12.07;;;10.98;;
10565;SDS011;5331;48.148;16.326;2023-08-21T00:41:53;12.43;;;11.30;;
10565;SDS011;5331;48.148;16.326;2023-08-21T00:44:20;12.07;;;10.98;;
10565;SDS011;5331;48.148;16.326;2023-08-21T00:46:47;11.70;;;10.70;;
10565;SDS011;5331;48.148;16.326;2023-08-21T00:49:14;10.48;;;9.57;;
10565;SDS011;5331;48.148;16.326;2023-08-21T00:51:42;11.57;;;10.45;;
10565;SDS011;5331;48.148;16.326;2023-08-21T00:54:10;10.85;;;9.98;;
10565;SDS011;5331;48.148;16.326;2023-08-21T00:56:37;12.10;;;10.90;;
10565;SDS011;5331;48.148;16.326;2023-08-21T00:59:04;10.98;;;9.65;;
10565;SDS011;5331;48.148;16.326;2023-08-21T01:01:31;11.48;;;10.57;;
10565;SDS011;5331;48.148;16.326;2023-08-21T01:03:59;11.35;;;10.45;;
10565;SDS011;5331;48.148;16.326;2023-08-21T01:06:26;11.40;;;10.27;;
10565;SDS011;5331;48.148;16.326;2023-08-21T01:08:56;11.55;;;10.50;;
10565;SDS011;5331;48.148;16.326;2023-08-21T01:11:27;12.00;;;10.82;;
10565;SDS011;5331;48.148;16.326;2023-08-21T01:14:03;12.32;;;11.02;;
10565;SDS011;5331;48.148;16.326;2023-08-21T01:16:37;12.68;;;11.35;;
10565;SDS011;5331;48.148;16.326;2023-08-21T01:19:07;11.45;;;10.55;;
10565;SDS011;5331;48.148;16.326;2023-08-21T01:21:41;11.68;;;10.68;;
10565;SDS011;5331;48.148;16.326;2023-08-21T01:24:09;11.65;;;10.55;;
10565;SDS011;5331;48.148;16.326;2023-08-21T01:26:36;12.05;;;11.02;;
10565;SDS011;5331;48.148;16.326;2023-08-21T01:29:03;11.80;;;10.75;;
10565;SDS011;5331;48.148;16.326;2023-08-21T01:31:30;11.35;;;10.38;;
10565;SDS011;5331;48.148;16.326;2023-08-21T01:34:00;11.43;;;10.48;;
10565;SDS011;5331;48.148;16.326;2023-08-21T01:36:35;11.30;;;10.40;;
10565;SDS011;5331;48.148;16.326;2023-08-21T01:39:02;11.32;;;10.43;;
10565;SDS011;5331;48.148;16.326;2023-08-21T01:41:31;11.63;;;10.57;;
10565;SDS011;5331;48.148;16.326;2023-08-21T01:43:58;12.13;;;11.13;;
10565;SDS011;5331;48.148;16.326;2023-08-21T01:46:24;11.90;;;10.88;;
10565;SDS011;5331;48.148;16.326;2023-08-21T01:48:51;11.63;;;10.65;;
10565;SDS011;5331;48.148;16.326;2023-08-21T01:51:18;11.80;;;10.73;;
10565;SDS011;5331;48.148;16.326;2023-08-21T01:53:45;12.05;;;11.00;;
10565;SDS011;5331;48.148;16.326;2023-08-21T01:56:12;11.70;;;10.70;;
10565;SDS011;5331;48.148;16.326;2023-08-21T01:58:41;12.52;;;11.32;;
10565;SDS011;5331;48.148;16.326;2023-08-21T02:01:08;12.20;;;11.02;;
10565;SDS011;5331;48.148;16.326;2023-08-21T02:03:34;12.00;;;11.00;;
10565;SDS011;5331;48.148;16.326;2023-08-21T02:06:01;12.48;;;11.27;;
10565;SDS011;5331;48.148;16.326;2023-08-21T02:08:31;12.15;;;11.02;;
10565;SDS011;5331;48.148;16.326;2023-08-21T02:10:58;12.15;;;11.05;;
10565;SDS011;5331;48.148;16.326;2023-08-21T02:13:25;11.63;;;10.60;;
10565;SDS011;5331;48.148;16.326;2023-08-21T02:15:53;12.45;;;11.32;;
10565;SDS011;5331;48.148;16.326;2023-08-21T02:18:20;12.75;;;11.52;;
10565;SDS011;5331;48.148;16.326;2023-08-21T02:20:47;12.75;;;11.55;;
10565;SDS011;5331;48.148;16.326;2023-08-21T02:23:14;12.00;;;10.90;;
10565;SDS011;5331;48.148;16.326;2023-08-21T02:25:41;11.48;;;10.57;;
10565;SDS011;5331;48.148;16.326;2023-08-21T02:28:08;11.98;;;10.88;;
10565;SDS011;5331;48.148;16.326;2023-08-21T02:30:35;11.48;;;10.57;;
10565;SDS011;5331;48.148;16.326;2023-08-21T02:33:07;12.43;;;11.25;;
10565;SDS011;5331;48.148;16.326;2023-08-21T02:35:34;12.63;;;11.43;;
10565;SDS011;5331;48.148;16.326;2023-08-21T02:38:01;11.48;;;10.48;;
10565;SDS011;5331;48.148;16.326;2023-08-21T02:40:28;12.35;;;11.25;;
10565;SDS011;5331;48.148;16.326;2023-08-21T02:42:55;12.32;;;11.13;;
10565;SDS011;5331;48.148;16.326;2023-08-21T02:45:22;12.93;;;11.73;;
10565;SDS011;5331;48.148;16.326;2023-08-21T02:47:49;13.00;;;11.90;;
10565;SDS011;5331;48.148;16.326;2023-08-21T02:50:18;12.02;;;10.93;;
10565;SDS011;5331;48.148;16.326;2023-08-21T02:52:45;12.55;;;11.25;;
10565;SDS011;5331;48.148;16.326;2023-08-21T02:55:12;12.43;;;11.23;;
10565;SDS011;5331;48.148;16.326;2023-08-21T02:57:39;12.55;;;11.35;;
10565;SDS011;5331;48.148;16.326;2023-08-21T03:00:06;11.88;;;10.88;;
10565;SDS011;5331;48.148;16.326;2023-08-21T03:02:34;11.80;;;10.80;;
10565;SDS011;5331;48.148;16.326;2023-08-21T03:05:01;12.65;;;11.55;;
10565;SDS011;5331;48.148;16.326;2023-08-21T03:07:29;12.35;;;11.25;;
10565;SDS011;5331;48.148;16.326;2023-08-21T03:09:56;11.52;;;10.52;;
10565;SDS011;5331;48.148;16.326;2023-08-21T03:12:23;12.18;;;10.95;;
10565;SDS011;5331;48.148;16.326;2023-08-21T03:14:50;12.52;;;11.23;;
10565;SDS011;5331;48.148;16.326;2023-08-21T03:17:17;13.02;;;11.82;;
10565;SDS011;5331;48.148;16.326;2023-08-21T03:19:44;12.48;;;11.23;;
10565;SDS011;5331;48.148;16.326;2023-08-21T03:22:10;12.55;;;11.43;;
10565;SDS011;5331;48.148;16.326;2023-08-21T03:24:39;13.07;;;11.85;;
10565;SDS011;5331;48.148;16.326;2023-08-21T03:27:06;11.93;;;10.82;;
10565;SDS011;5331;48.148;16.326;2023-08-21T03:29:32;12.63;;;11.45;;
10565;SDS011;5331;48.148;16.326;2023-08-21T03:31:59;12.00;;;11.00;;
10565;SDS011;5331;48.148;16.326;2023-08-21T03:34:26;12.05;;;11.00;;
10565;SDS011;5331;48.148;16.326;2023-08-21T03:36:53;11.15;;;10.15;;
10565;SDS011;5331;48.148;16.326;2023-08-21T03:39:20;12.50;;;11.40;;
10565;SDS011;5331;48.148;16.326;2023-08-21T03:41:48;12.65;;;11.45;;
10565;SDS011;5331;48.148;16.326;2023-08-21T03:44:15;12.57;;;11.38;;
10565;SDS011;5331;48.148;16.326;2023-08-21T03:46:42;12.77;;;11.48;;
10565;SDS011;5331;48.148;16.326;2023-08-21T03:49:08;13.23;;;12.13;;
10565;SDS011;5331;48.148;16.326;2023-08-21T03:51:35;12.85;;;11.65;;
10565;SDS011;5331;48.148;16.326;2023-08-21T03:54:02;13.40;;;12.20;;
10565;SDS011;5331;48.148;16.326;2023-08-21T03:56:29;11.60;;;10.60;;
10565;SDS011;5331;48.148;16.326;2023-08-21T03:58:58;11.85;;;10.75;;
10565;SDS011;5331;48.148;16.326;2023-08-21T04:01:24;12.60;;;11.38;;
10565;SDS011;5331;48.148;16.326;2023-08-21T04:03:51;13.18;;;11.85;;
10565;SDS011;5331;48.148;16.326;2023-08-21T04:06:18;12.60;;;11.50;;
10565;SDS011;5331;48.148;16.326;2023-08-21T04:08:45;11.98;;;10.98;;
10565;SDS011;5331;48.148;16.326;2023-08-21T04:11:12;12.02;;;10.93;;
10565;SDS011;5331;48.148;16.326;2023-08-21T04:13:39;12.27;;;11.18;;
10565;SDS011;5331;48.148;16.326;2023-08-21T04:16:07;11.85;;;10.82;;
10565;SDS011;5331;48.148;16.326;2023-08-21T04:18:35;11.88;;;10.77;;
10565;SDS011;5331;48.148;16.326;2023-08-21T04:21:03;11.88;;;10.88;;
10565;SDS011;5331;48.148;16.326;2023-08-21T04:23:31;11.93;;;10.77;;
10565;SDS011;5331;48.148;16.326;2023-08-21T04:25:59;14.55;;;13.10;;
10565;SDS011;5331;48.148;16.326;2023-08-21T04:28:27;11.85;;;10.82;;
10565;SDS011;5331;48.148;16.326;2023-08-21T04:30:54;12.38;;;11.15;;
10565;SDS011;5331;48.148;16.326;2023-08-21T04:33:24;11.82;;;10.70;;
10565;SDS011;5331;48.148;16.326;2023-08-21T04:35:51;11.43;;;10.32;;
10565;SDS011;5331;48.148;16.326;2023-08-21T04:38:18;12.57;;;11.38;;
10565;SDS011;5331;48.148;16.326;2023-08-21T04:40:44;12.77;;;11.30;;
10565;SDS011;5331;48.148;16.326;2023-08-21T04:43:11;13.02;;;11.70;;
10565;SDS011;5331;48.148;16.326;2023-08-21T04:45:38;14.93;;;11.27;;
10565;SDS011;5331;48.148;16.326;2023-08-21T04:48:13;16.10;;;12.55;;
10565;SDS011;5331;48.148;16.326;2023-08-21T04:50:41;12.23;;;10.80;;
10565;SDS011;5331;48.148;16.326;2023-08-21T04:53:08;12.98;;;11.40;;
10565;SDS011;5331;48.148;16.326;2023-08-21T04:55:35;12.70;;;11.52;;
10565;SDS011;5331;48.148;16.326;2023-08-21T04:58:02;13.02;;;11.73;;
10565;SDS011;5331;48.148;16.326;2023-08-21T05:00:29;12.60;;;11.40;;
10565;SDS011;5331;48.148;16.326;2023-08-21T05:02:56;12.88;;;11.77;;
10565;SDS011;5331;48.148;16.326;2023-08-21T05:05:23;12.15;;;11.00;;
10565;SDS011;5331;48.148;16.326;2023-08-21T05:07:51;12.73;;;11.63;;
10565;SDS011;5331;48.148;16.326;2023-08-21T05:10:18;12.27;;;11.07;;
10565;SDS011;5331;48.148;16.326;2023-08-21T05:12:45;12.43;;;11.32;;
10565;SDS011;5331;48.148;16.326;2023-08-21T05:15:12;12.27;;;11.07;;
10565;SDS011;5331;48.148;16.326;2023-08-21T05:17:40;13.10;;;11.80;;
10565;SDS011;5331;48.148;16.326;2023-08-21T05:20:07;14.88;;;11.10;;
10565;SDS011;5331;48.148;16.326;2023-08-21T05:22:35;12.07;;;11.07;;
10565;SDS011;5331;48.148;16.326;2023-08-21T05:25:03;11.82;;;10.82;;
10565;SDS011;5331;48.148;16.326;2023-08-21T05:27:31;12.25;;;11.05;;
10565;SDS011;5331;48.148;16.326;2023-08-21T05:29:57;12.32;;;11.10;;
10565;SDS011;5331;48.148;16.326;2023-08-21T05:32:24;13.27;;;11.98;;
10565;SDS011;5331;48.148;16.326;2023-08-21T05:34:51;12.38;;;11.32;;
10565;SDS011;5331;48.148;16.326;2023-08-21T05:37:18;11.70;;;10.77;;
10565;SDS011;5331;48.148;16.326;2023-08-21T05:39:45;12.43;;;11.32;;
10565;SDS011;5331;48.148;16.326;2023-08-21T05:42:13;12.60;;;11.50;;
10565;SDS011;5331;48.148;16.326;2023-08-21T05:44:40;12.50;;;11.43;;
10565;SDS011;5331;48.148;16.326;2023-08-21T05:47:07;12.57;;;11.48;;
10565;SDS011;5331;48.148;16.326;2023-08-21T05:49:33;12.70;;;11.60;;
10565;SDS011;5331;48.148;16.326;2023-08-21T05:52:00;13.65;;;12.25;;
10565;SDS011;5331;48.148;16.326;2023-08-21T05:54:27;12.60;;;11.50;;
10565;SDS011;5331;48.148;16.326;2023-08-21T05:56:55;12.68;;;11.48;;
10565;SDS011;5331;48.148;16.326;2023-08-21T05:59:30;13.02;;;11.88;;
10565;SDS011;5331;48.148;16.326;2023-08-21T06:01:57;13.63;;;12.25;;
10565;SDS011;5331;48.148;16.326;2023-08-21T06:04:24;12.05;;;10.90;;
10565;SDS011;5331;48.148;16.326;2023-08-21T06:06:52;12.98;;;11.88;;
10565;SDS011;5331;48.148;16.326;2023-08-21T06:09:19;15.00;;;11.90;;
10565;SDS011;5331;48.148;16.326;2023-08-21T06:11:46;13.05;;;11.80;;
10565;SDS011;5331;48.148;16.326;2023-08-21T06:14:13;13.18;;;11.70;;
10565;SDS011;5331;48.148;16.326;2023-08-21T06:16:41;13.27;;;11.88;;
10565;SDS011;5331;48.148;16.326;2023-08-21T06:19:08;12.55;;;11.27;;
10565;SDS011;5331;48.148;16.326;2023-08-21T06:21:35;13.23;;;11.93;;
10565;SDS011;5331;48.148;16.326;2023-08-21T06:24:02;13.02;;;11.73;;
10565;SDS011;5331;48.148;16.326;2023-08-21T06:26:29;12.82;;;11.70;;
10565;SDS011;5331;48.148;16.326;2023-08-21T06:28:56;12.13;;;10.93;;
10565;SDS011;5331;48.148;16.326;2023-08-21T06:31:23;13.02;;;11.93;;
10565;SDS011;5331;48.148;16.326;2023-08-21T06:33:51;12.95;;;11.75;;
10565;SDS011;5331;48.148;16.326;2023-08-21T06:36:18;12.88;;;11.60;;
10565;SDS011;5331;48.148;16.326;2023-08-21T06:38:45;12.98;;;11.68;;
10565;SDS011;5331;48.148;16.326;2023-08-21T06:41:12;12.38;;;11.27;;
10565;SDS011;5331;48.148;16.326;2023-08-21T06:43:39;13.95;;;12.55;;
10565;SDS011;5331;48.148;16.326;2023-08-21T06:46:06;13.05;;;11.80;;
10565;SDS011;5331;48.148;16.326;2023-08-21T06:48:33;13.45;;;12.18;;
10565;SDS011;5331;48.148;16.326;2023-08-21T06:51:02;14.13;;;12.73;;
10565;SDS011;5331;48.148;16.326;2023-08-21T06:53:29;13.40;;;12.10;;
10565;SDS011;5331;48.148;16.326;2023-08-21T06:55:56;12.82;;;11.55;;
10565;SDS011;5331;48.148;16.326;2023-08-21T06:58:23;14.02;;;12.73;;
10565;SDS011;5331;48.148;16.326;2023-08-21T07:00:50;12.25;;;11.15;;
10565;SDS011;5331;48.148;16.326;2023-08-21T07:03:17;12.80;;;11.60;;
10565;SDS011;5331;48.148;16.326;2023-08-21T07:05:46;13.13;;;11.93;;
10565;SDS011;5331;48.148;16.326;2023-08-21T07:08:15;13.88;;;12.57;;
10565;SDS011;5331;48.148;16.326;2023-08-21T07:10:42;15.95;;;14.45;;
10565;SDS011;5331;48.148;16.326;2023-08-21T07:13:08;14.90;;;13.30;;
10565;SDS011;5331;48.148;16.326;2023-08-21T07:15:35;18.52;;;15.70;;
10565;SDS011;5331;48.148;16.326;2023-08-21T07:18:04;17.77;;;14.88;;
10565;SDS011;5331;48.148;16.326;2023-08-21T07:20:33;17.17;;;14.55;;
10565;SDS011;5331;48.148;16.326;2023-08-21T07:23:01;16.70;;;14.38;;
10565;SDS011;5331;48.148;16.326;2023-08-21T07:25:29;14.25;;;12.77;;
10565;SDS011;5331;48.148;16.326;2023-08-21T07:27:56;14.07;;;12.07;;
10565;SDS011;5331;48.148;16.326;2023-08-21T07:30:23;13.82;;;11.90;;
10565;SDS011;5331;48.148;16.326;2023-08-21T07:32:52;13.50;;;12.25;;
10565;SDS011;5331;48.148;16.326;2023-08-21T07:35:19;13.18;;;11.88;;
10565;SDS011;5331;48.148;16.326;2023-08-21T07:37:46;15.43;;;11.90;;
10565;SDS011;5331;48.148;16.326;2023-08-21T07:40:13;11.90;;;10.82;;
10565;SDS011;5331;48.148;16.326;2023-08-21T07:42:41;11.50;;;10.50;;
10565;SDS011;5331;48.148;16.326;2023-08-21T07:45:08;11.95;;;10.85;;
10565;SDS011;5331;48.148;16.326;2023-08-21T07:47:36;15.10;;;10.93;;
10565;SDS011;5331;48.148;16.326;2023-08-21T07:50:03;12.07;;;10.98;;
10565;SDS011;5331;48.148;16.326;2023-08-21T07:52:31;11.40;;;10.40;;
10565;SDS011;5331;48.148;16.326;2023-08-21T07:54:58;13.23;;;11.38;;
10565;SDS011;5331;48.148;16.326;2023-08-21T07:57:25;11.90;;;10.65;;
10565;SDS011;5331;48.148;16.326;2023-08-21T07:59:54;11.95;;;10.88;;
10565;SDS011;5331;48.148;16.326;2023-08-21T08:02:21;11.85;;;10.80;;
10565;SDS011;5331;48.148;16.326;2023-08-21T08:04:48;11.45;;;10.40;;
10565;SDS011;5331;48.148;16.326;2023-08-21T08:07:15;11.00;;;10.10;;
10565;SDS011;5331;48.148;16.326;2023-08-21T08:09:43;12.43;;;9.68;;
10565;SDS011;5331;48.148;16.326;2023-08-21T08:12:09;10.48;;;9.57;;
10565;SDS011;5331;48.148;16.326;2023-08-21T08:14:36;10.45;;;9.65;;
10565;SDS011;5331;48.148;16.326;2023-08-21T08:17:05;10.25;;;9.27;;
10565;SDS011;5331;48.148;16.326;2023-08-21T08:19:32;10.43;;;9.43;;
10565;SDS011;5331;48.148;16.326;2023-08-21T08:21:59;10.90;;;9.90;;
10565;SDS011;5331;48.148;16.326;2023-08-21T08:24:26;10.60;;;9.57;;
10565;SDS011;5331;48.148;16.326;2023-08-21T08:26:52;10.32;;;9.38;;
10565;SDS011;5331;48.148;16.326;2023-08-21T08:29:19;9.70;;;8.93;;
10565;SDS011;5331;48.148;16.326;2023-08-21T08:31:46;10.60;;;9.60;;
10565;SDS011;5331;48.148;16.326;2023-08-21T08:34:14;9.85;;;9.10;;
10565;SDS011;5331;48.148;16.326;2023-08-21T08:36:43;10.20;;;9.27;;
10565;SDS011;5331;48.148;16.326;2023-08-21T08:39:09;9.80;;;9.00;;
10565;SDS011;5331;48.148;16.326;2023-08-21T08:41:38;10.38;;;9.38;;
10565;SDS011;5331;48.148;16.326;2023-08-21T08:44:10;10.90;;;10.00;;
10565;SDS011;5331;48.148;16.326;2023-08-21T08:46:39;10.20;;;9.18;;
10565;SDS011;5331;48.148;16.326;2023-08-21T08:49:06;9.95;;;9.05;;
10565;SDS011;5331;48.148;16.326;2023-08-21T08:51:34;10.63;;;9.05;;
10565;SDS011;5331;48.148;16.326;2023-08-21T08:54:05;10.85;;;9.80;;
10565;SDS011;5331;48.148;16.326;2023-08-21T08:56:33;9.93;;;8.93;;
10565;SDS011;5331;48.148;16.326;2023-08-21T08:59:00;10.88;;;9.77;;
10565;SDS011;5331;48.148;16.326;2023-08-21T09:01:28;12.73;;;9.43;;
10565;SDS011;5331;48.148;16.326;2023-08-21T09:03:55;10.90;;;9.90;;
10565;SDS011;5331;48.148;16.326;2023-08-21T09:06:22;9.82;;;8.88;;
10565;SDS011;5331;48.148;16.326;2023-08-21T09:08:57;9.95;;;8.73;;
10565;SDS011;5331;48.148;16.326;2023-08-21T09:11:23;9.45;;;8.52;;
10565;SDS011;5331;48.148;16.326;2023-08-21T09:13:51;10.02;;;8.82;;
10565;SDS011;5331;48.148;16.326;2023-08-21T09:16:19;9.25;;;8.45;;
10565;SDS011;5331;48.148;16.326;2023-08-21T09:18:47;9.80;;;8.95;;
10565;SDS011;5331;48.148;16.326;2023-08-21T09:21:15;9.10;;;8.15;;
10565;SDS011;5331;48.148;16.326;2023-08-21T09:23:43;9.90;;;8.90;;
10565;SDS011;5331;48.148;16.326;2023-08-21T09:26:12;10.13;;;9.32;;
10565;SDS011;5331;48.148;16.326;2023-08-21T09:28:45;10.80;;;9.90;;
10565;SDS011;5331;48.148;16.326;2023-08-21T09:31:12;10.20;;;9.23;;
10565;SDS011;5331;48.148;16.326;2023-08-21T09:33:39;11.00;;;10.07;;
10565;SDS011;5331;48.148;16.326;2023-08-21T09:36:06;11.70;;;10.55;;
10565;SDS011;5331;48.148;16.326;2023-08-21T09:38:38;11.48;;;10.32;;
10565;SDS011;5331;48.148;16.326;2023-08-21T09:41:06;10.82;;;9.82;;
10565;SDS011;5331;48.148;16.326;2023-08-21T09:43:37;11.32;;;10.25;;
10565;SDS011;5331;48.148;16.326;2023-08-21T09:46:08;10.68;;;9.73;;
10565;SDS011;5331;48.148;16.326;2023-08-21T09:48:39;11.40;;;10.40;;
10565;SDS011;5331;48.148;16.326;2023-08-21T09:51:07;11.23;;;10.10;;
10565;SDS011;5331;48.148;16.326;2023-08-21T09:53:36;10.30;;;9.40;;
10565;SDS011;5331;48.148;16.326;2023-08-21T09:56:04;10.18;;;9.38;;
10565;SDS011;5331;48.148;16.326;2023-08-21T09:58:32;10.43;;;9.38;;
10565;SDS011;5331;48.148;16.326;2023-08-21T10:01:00;10.30;;;9.50;;
10565;SDS011;5331;48.148;16.326;2023-08-21T10:03:37;9.68;;;8.98;;
10565;SDS011;5331;48.148;16.326;2023-08-21T10:06:05;10.55;;;9.50;;
10565;SDS011;5331;48.148;16.326;2023-08-21T10:08:36;9.93;;;8.98;;
10565;SDS011;5331;48.148;16.326;2023-08-21T10:11:05;11.43;;;10.18;;
10565;SDS011;5331;48.148;16.326;2023-08-21T10:13:34;10.73;;;9.75;;
10565;SDS011;5331;48.148;16.326;2023-08-21T10:16:04;10.65;;;9.85;;
10565;SDS011;5331;48.148;16.326;2023-08-21T10:18:32;10.73;;;9.85;;
10565;SDS011;5331;48.148;16.326;2023-08-21T10:21:10;12.80;;;9.73;;
10565;SDS011;5331;48.148;16.326;2023-08-21T10:23:38;9.75;;;8.90;;
10565;SDS011;5331;48.148;16.326;2023-08-21T10:26:06;9.38;;;8.57;;
10565;SDS011;5331;48.148;16.326;2023-08-21T10:28:47;9.82;;;9.02;;
10565;SDS011;5331;48.148;16.326;2023-08-21T10:31:26;9.48;;;8.68;;
10565;SDS011;5331;48.148;16.326;2023-08-21T10:33:54;10.32;;;9.35;;
10565;SDS011;5331;48.148;16.326;2023-08-21T10:36:37;11.50;;;9.18;;
10565;SDS011;5331;48.148;16.326;2023-08-21T10:39:07;9.88;;;8.98;;
10565;SDS011;5331;48.148;16.326;2023-08-21T10:41:39;10.00;;;9.10;;
10565;SDS011;5331;48.148;16.326;2023-08-21T10:44:06;10.07;;;9.27;;
10565;SDS011;5331;48.148;16.326;2023-08-21T10:49:19;9.75;;;9.00;;
10565;SDS011;5331;48.148;16.326;2023-08-21T10:51:46;9.18;;;8.43;;
10565;SDS011;5331;48.148;16.326;2023-08-21T10:54:13;10.52;;;9.60;;
10565;SDS011;5331;48.148;16.326;2023-08-21T10:56:40;12.23;;;10.10;;
10565;SDS011;5331;48.148;16.326;2023-08-21T10:59:07;10.10;;;9.20;;
10565;SDS011;5331;48.148;16.326;2023-08-21T11:01:42;10.00;;;9.10;;
10565;SDS011;5331;48.148;16.326;2023-08-21T11:04:11;8.63;;;7.82;;
10565;SDS011;5331;48.148;16.326;2023-08-21T11:06:39;7.28;;;6.68;;
10565;SDS011;5331;48.148;16.326;2023-08-21T11:09:11;8.27;;;7.60;;
10565;SDS011;5331;48.148;16.326;2023-08-21T11:11:39;8.90;;;8.05;;
10565;SDS011;5331;48.148;16.326;2023-08-21T11:14:06;8.95;;;8.20;;
10565;SDS011;5331;48.148;16.326;2023-08-21T11:16:32;9.20;;;8.50;;
10565;SDS011;5331;48.148;16.326;2023-08-21T11:19:02;8.90;;;8.20;;
10565;SDS011;5331;48.148;16.326;2023-08-21T11:21:32;9.38;;;8.50;;
10565;SDS011;5331;48.148;16.326;2023-08-21T11:23:59;8.93;;;8.20;;
10565;SDS011;5331;48.148;16.326;2023-08-21T11:26:27;10.85;;;8.25;;
10565;SDS011;5331;48.148;16.326;2023-08-21T11:28:54;9.52;;;8.63;;
10565;SDS011;5331;48.148;16.326;2023-08-21T11:31:22;10.07;;;8.82;;
10565;SDS011;5331;48.148;16.326;2023-08-21T11:33:49;11.55;;;8.77;;
10565;SDS011;5331;48.148;16.326;2023-08-21T11:36:16;9.85;;;8.95;;
10565;SDS011;5331;48.148;16.326;2023-08-21T11:38:55;9.35;;;8.55;;
10565;SDS011;5331;48.148;16.326;2023-08-21T11:41:25;9.23;;;8.52;;
10565;SDS011;5331;48.148;16.326;2023-08-21T11:43:51;8.90;;;8.20;;
10565;SDS011;5331;48.148;16.326;2023-08-21T11:46:18;12.10;;;9.20;;
10565;SDS011;5331;48.148;16.326;2023-08-21T11:48:45;9.02;;;8.18;;
10565;SDS011;5331;48.148;16.326;2023-08-21T11:51:12;10.23;;;9.40;;
10565;SDS011;5331;48.148;16.326;2023-08-21T11:53:40;9.20;;;8.50;;
10565;SDS011;5331;48.148;16.326;2023-08-21T11:56:12;9.68;;;8.75;;
10565;SDS011;5331;48.148;16.326;2023-08-21T11:58:41;9.25;;;7.88;;
10565;SDS011;5331;48.148;16.326;2023-08-21T12:01:10;8.73;;;7.93;;
10565;SDS011;5331;48.148;16.326;2023-08-21T12:03:43;7.60;;;6.90;;
10565;SDS011;5331;48.148;16.326;2023-08-21T12:06:11;7.63;;;6.93;;
10565;SDS011;5331;48.148;16.326;2023-08-21T12:08:38;7.57;;;6.88;;
10565;SDS011;5331;48.148;16.326;2023-08-21T12:11:06;7.07;;;6.55;;
10565;SDS011;5331;48.148;16.326;2023-08-21T12:13:35;8.23;;;6.32;;
10565;SDS011;5331;48.148;16.326;2023-08-21T12:16:02;7.40;;;6.85;;
10565;SDS011;5331;48.148;16.326;2023-08-21T12:18:29;9.65;;;8.68;;
10565;SDS011;5331;48.148;16.326;2023-08-21T12:20:56;8.20;;;7.60;;
10565;SDS011;5331;48.148;16.326;2023-08-21T12:23:22;7.82;;;7.22;;
10565;SDS011;5331;48.148;16.326;2023-08-21T12:25:49;7.78;;;7.05;;
10565;SDS011;5331;48.148;16.326;2023-08-21T12:28:17;7.00;;;6.47;;
10565;SDS011;5331;48.148;16.326;2023-08-21T12:30:45;7.43;;;6.82;;
10565;SDS011;5331;48.148;16.326;2023-08-21T12:33:13;7.72;;;6.85;;
10565;SDS011;5331;48.148;16.326;2023-08-21T12:35:40;11.48;;;7.75;;
10565;SDS011;5331;48.148;16.326;2023-08-21T12:38:10;7.72;;;6.93;;
10565;SDS011;5331;48.148;16.326;2023-08-21T12:40:38;9.75;;;7.45;;
10565;SDS011;5331;48.148;16.326;2023-08-21T12:43:05;8.23;;;7.20;;
10565;SDS011;5331;48.148;16.326;2023-08-21T12:45:32;7.55;;;7.00;;
10565;SDS011;5331;48.148;16.326;2023-08-21T12:48:00;7.28;;;6.57;;
10565;SDS011;5331;48.148;16.326;2023-08-21T12:50:28;7.55;;;6.85;;
10565;SDS011;5331;48.148;16.326;2023-08-21T12:52:55;7.80;;;7.10;;
10565;SDS011;5331;48.148;16.326;2023-08-21T12:55:22;8.75;;;7.95;;
10565;SDS011;5331;48.148;16.326;2023-08-21T12:57:49;7.93;;;7.13;;
10565;SDS011;5331;48.148;16.326;2023-08-21T13:00:16;8.77;;;7.95;;
10565;SDS011;5331;48.148;16.326;2023-08-21T13:02:43;8.18;;;7.47;;
10565;SDS011;5331;48.148;16.326;2023-08-21T13:05:11;8.25;;;7.45;;
10565;SDS011;5331;48.148;16.326;2023-08-21T13:07:38;7.28;;;6.68;;
10565;SDS011;5331;48.148;16.326;2023-08-21T13:10:06;6.75;;;6.15;;
10565;SDS011;5331;48.148;16.326;2023-08-21T13:12:33;6.75;;;6.05;;
10565;SDS011;5331;48.148;16.326;2023-08-21T13:15:00;6.10;;;5.50;;
10565;SDS011;5331;48.148;16.326;2023-08-21T13:17:27;6.63;;;6.00;;
10565;SDS011;5331;48.148;16.326;2023-08-21T13:19:54;5.97;;;5.57;;
10565;SDS011;5331;48.148;16.326;2023-08-21T13:22:23;6.32;;;5.75;;
10565;SDS011;5331;48.148;16.326;2023-08-21T13:24:49;5.72;;;5.32;;
10565;SDS011;5331;48.148;16.326;2023-08-21T13:27:16;5.97;;;5.22;;
10565;SDS011;5331;48.148;16.326;2023-08-21T13:29:45;6.15;;;5.75;;
10565;SDS011;5331;48.148;16.326;2023-08-21T13:32:12;5.72;;;5.18;;
10565;SDS011;5331;48.148;16.326;2023-08-21T13:34:39;5.70;;;5.10;;
10565;SDS011;5331;48.148;16.326;2023-08-21T13:37:06;5.60;;;5.10;;
10565;SDS011;5331;48.148;16.326;2023-08-21T13:39:34;6.00;;;5.40;;
10565;SDS011;5331;48.148;16.326;2023-08-21T13:42:01;5.80;;;5.13;;
10565;SDS011;5331;48.148;16.326;2023-08-21T13:44:28;6.47;;;5.38;;
10565;SDS011;5331;48.148;16.326;2023-08-21T13:46:55;5.45;;;5.15;;
10565;SDS011;5331;48.148;16.326;2023-08-21T13:49:22;5.85;;;5.30;;
10565;SDS011;5331;48.148;16.326;2023-08-21T13:51:49;5.22;;;4.78;;
10565;SDS011;5331;48.148;16.326;2023-08-21T13:54:15;4.80;;;4.43;;
10565;SDS011;5331;48.148;16.326;2023-08-21T13:56:44;4.35;;;4.03;;
10565;SDS011;5331;48.148;16.326;2023-08-21T13:59:10;5.00;;;4.60;;
10565;SDS011;5331;48.148;16.326;2023-08-21T14:01:37;4.72;;;4.32;;
10565;SDS011;5331;48.148;16.326;2023-08-21T14:04:04;4.45;;;4.15;;
10565;SDS011;5331;48.148;16.326;2023-08-21T14:06:31;4.88;;;4.38;;
10565;SDS011;5331;48.148;16.326;2023-08-21T14:08:58;4.85;;;4.55;;
10565;SDS011;5331;48.148;16.326;2023-08-21T14:11:25;5.40;;;4.55;;
10565;SDS011;5331;48.148;16.326;2023-08-21T14:13:53;5.00;;;4.70;;
10565;SDS011;5331;48.148;16.326;2023-08-21T14:16:20;7.68;;;5.07;;
10565;SDS011;5331;48.148;16.326;2023-08-21T14:18:47;5.30;;;4.85;;
10565;SDS011;5331;48.148;16.326;2023-08-21T14:21:14;5.65;;;4.88;;
10565;SDS011;5331;48.148;16.326;2023-08-21T14:23:40;5.55;;;5.15;;
10565;SDS011;5331;48.148;16.326;2023-08-21T14:26:07;5.25;;;4.85;;
10565;SDS011;5331;48.148;16.326;2023-08-21T14:28:34;4.97;;;4.60;;
10565;SDS011;5331;48.148;16.326;2023-08-21T14:31:03;5.03;;;4.63;;
10565;SDS011;5331;48.148;16.326;2023-08-21T14:33:29;5.60;;;5.10;;
10565;SDS011;5331;48.148;16.326;2023-08-21T14:35:56;7.70;;;5.03;;